createdAt,value
2022-08-17T00:01:16.850Z,10.48
2022-08-17T00:03:47.590Z,10.40
2022-08-17T00:06:16.869Z,10.47
2022-08-17T00:08:45.878Z,8.83
2022-08-17T00:11:15.230Z,9.65
2022-08-17T00:13:45.890Z,9.85
2022-08-17T00:16:15.570Z,10.85
2022-08-17T00:19:06.015Z,9.10
2022-08-17T00:22:10.617Z,10.67
2022-08-17T00:24:19.383Z,9.10
2022-08-17T00:26:46.322Z,9.73
2022-08-17T00:29:16.477Z,9.10
2022-08-17T00:31:46.784Z,9.05
2022-08-17T00:34:13.354Z,9.87
2022-08-17T00:36:41.273Z,11.00
2022-08-17T00:39:07.863Z,10.05
2022-08-17T00:41:34.710Z,8.63
2022-08-17T00:44:04.118Z,9.90
2022-08-17T00:46:32.756Z,10.00
2022-08-17T00:49:00.161Z,11.17
2022-08-17T00:51:33.219Z,11.13
2022-08-17T00:54:10.789Z,9.85
2022-08-17T00:56:41.671Z,9.05
2022-08-17T00:59:10.199Z,10.15
2022-08-17T01:01:37.905Z,9.77
2022-08-17T01:04:05.591Z,9.97
2022-08-17T01:06:32.924Z,10.43
2022-08-17T01:09:02.350Z,9.25
2022-08-17T01:11:31.092Z,10.60
2022-08-17T01:13:57.632Z,9.95
2022-08-17T01:16:26.636Z,9.20
2022-08-17T01:18:58.150Z,9.30
2022-08-17T01:21:35.718Z,10.40
2022-08-17T01:24:04.647Z,11.30
2022-08-17T01:26:32.482Z,8.95
2022-08-17T01:29:00.512Z,8.75
2022-08-17T01:31:30.854Z,10.82
2022-08-17T01:33:59.839Z,8.90
2022-08-17T01:36:28.463Z,10.73
2022-08-17T01:38:55.039Z,8.73
2022-08-17T01:41:24.279Z,9.20
2022-08-17T01:43:54.627Z,9.88
2022-08-17T01:46:24.573Z,9.63
2022-08-17T01:48:51.293Z,10.87
2022-08-17T01:51:18.261Z,9.20
2022-08-17T01:53:48.733Z,9.07
2022-08-17T01:56:18.132Z,10.02
2022-08-17T01:58:46.946Z,8.85
2022-08-17T02:01:14.546Z,10.10
2022-08-17T02:03:41.270Z,10.53
2022-08-17T02:06:27.159Z,10.03
2022-08-17T02:09:02.257Z,9.52
2022-08-17T02:11:30.932Z,10.52
2022-08-17T02:14:01.094Z,9.07
2022-08-17T02:16:36.954Z,9.52
2022-08-17T02:19:06.297Z,10.20
2022-08-17T02:21:32.910Z,9.90
2022-08-17T02:23:59.536Z,9.27
2022-08-17T02:26:26.763Z,10.43
2022-08-17T02:28:53.429Z,10.95
2022-08-17T02:31:21.433Z,10.02
2022-08-17T02:34:00.233Z,9.37
2022-08-17T02:36:33.019Z,10.57
2022-08-17T02:39:00.071Z,9.02
2022-08-17T02:41:26.606Z,9.35
2022-08-17T02:43:53.189Z,9.00
2022-08-17T02:46:21.116Z,9.38
2022-08-17T02:48:47.728Z,9.10
2022-08-17T02:51:14.294Z,9.47
2022-08-17T02:53:40.989Z,10.13
2022-08-17T02:56:07.641Z,10.43
2022-08-17T02:58:36.082Z,9.27
2022-08-17T03:01:04.277Z,9.98
2022-08-17T03:03:32.269Z,10.07
2022-08-17T03:05:58.885Z,9.83
2022-08-17T03:08:25.674Z,9.48
2022-08-17T03:10:52.551Z,9.40
2022-08-17T03:13:19.283Z,9.57
2022-08-17T03:15:47.061Z,9.70
2022-08-17T03:18:24.918Z,9.07
2022-08-17T03:20:54.039Z,10.33
2022-08-17T03:23:23.686Z,10.17
2022-08-17T03:25:53.147Z,9.95
2022-08-17T03:28:20.930Z,12.13
2022-08-17T03:30:47.693Z,9.98
2022-08-17T03:33:14.422Z,11.18
2022-08-17T03:35:41.102Z,10.60
2022-08-17T03:38:11.083Z,9.30
2022-08-17T03:40:56.569Z,9.32
2022-08-17T03:43:26.440Z,9.35
2022-08-17T03:45:52.950Z,11.35
2022-08-17T03:48:20.159Z,9.90
2022-08-17T03:50:46.719Z,11.43
2022-08-17T03:53:17.201Z,9.70
2022-08-17T03:55:43.788Z,10.80
2022-08-17T03:58:10.369Z,10.20
2022-08-17T04:00:39.706Z,10.90
2022-08-17T04:03:06.467Z,10.73
2022-08-17T04:05:35.611Z,12.50
2022-08-17T04:08:02.432Z,9.77
2022-08-17T04:10:34.676Z,11.38
2022-08-17T04:13:11.420Z,10.07
2022-08-17T04:15:37.990Z,10.40
2022-08-17T04:18:04.571Z,9.60
2022-08-17T04:20:31.247Z,10.87
2022-08-17T04:22:59.584Z,10.70
2022-08-17T04:25:26.340Z,11.45
2022-08-17T04:27:54.738Z,9.70
2022-08-17T04:30:21.654Z,10.05
2022-08-17T04:33:04.768Z,11.20
2022-08-17T04:35:36.263Z,11.00
2022-08-17T04:38:02.920Z,11.60
2022-08-17T04:40:29.522Z,10.15
2022-08-17T04:43:02.730Z,13.13
2022-08-17T04:45:32.188Z,12.05
2022-08-17T04:47:59.448Z,11.05
2022-08-17T04:50:26.185Z,10.20
2022-08-17T04:52:52.722Z,11.63
2022-08-17T04:55:19.331Z,10.90
2022-08-17T04:57:45.915Z,12.07
2022-08-17T05:00:14.611Z,11.05
2022-08-17T05:02:50.096Z,9.80
2022-08-17T05:05:18.622Z,9.90
2022-08-17T05:07:45.184Z,11.55
2022-08-17T05:10:11.843Z,11.43
2022-08-17T05:12:38.363Z,10.82
2022-08-17T05:15:10.395Z,10.02
2022-08-17T05:17:38.300Z,10.60
2022-08-17T05:20:05.575Z,9.40
2022-08-17T05:22:32.115Z,10.57
2022-08-17T05:24:58.651Z,9.40
2022-08-17T05:27:32.903Z,8.85
2022-08-17T05:30:02.130Z,9.52
2022-08-17T05:32:39.285Z,10.33
2022-08-17T05:35:08.911Z,10.33
2022-08-17T05:37:35.465Z,10.13
2022-08-17T05:40:02.098Z,9.82
2022-08-17T05:42:28.709Z,9.40
2022-08-17T05:44:57.366Z,10.52
2022-08-17T05:47:26.153Z,11.33
2022-08-17T05:49:53.747Z,9.53
2022-08-17T05:52:32.984Z,10.65
2022-08-17T05:55:13.687Z,11.80
2022-08-17T05:57:53.413Z,12.20
2022-08-17T06:00:26.441Z,12.88
2022-08-17T06:03:44.894Z,11.47
2022-08-17T06:06:25.284Z,12.50
2022-08-17T06:09:15.220Z,12.57
2022-08-17T06:11:47.623Z,15.35
2022-08-17T06:14:38.217Z,12.13
2022-08-17T06:17:10.856Z,11.93
2022-08-17T06:19:42.647Z,13.13
2022-08-17T06:22:13.028Z,11.75
2022-08-17T06:24:45.516Z,12.10
2022-08-17T06:27:21.725Z,12.10
2022-08-17T06:29:53.680Z,12.88
2022-08-17T06:32:20.587Z,14.17
2022-08-17T06:34:47.842Z,14.93
2022-08-17T06:37:37.574Z,11.23
2022-08-17T06:40:23.880Z,13.60
2022-08-17T06:43:05.889Z,11.88
2022-08-17T06:45:38.603Z,12.82
2022-08-17T06:48:12.766Z,13.37
2022-08-17T06:50:44.085Z,13.50
2022-08-17T06:53:19.621Z,16.23
2022-08-17T06:55:55.867Z,18.15
2022-08-17T06:58:24.247Z,17.40
2022-08-17T07:00:58.813Z,12.82
2022-08-17T07:03:33.655Z,13.00
2022-08-17T07:06:06.486Z,13.00
2022-08-17T07:08:44.540Z,13.63
2022-08-17T07:11:16.413Z,13.90
2022-08-17T07:13:51.589Z,12.50
2022-08-17T07:16:23.994Z,11.80
2022-08-17T07:18:52.765Z,13.90
2022-08-17T07:21:34.210Z,10.77
2022-08-17T07:24:29.176Z,12.10
2022-08-17T07:27:16.119Z,11.77
2022-08-17T07:29:48.421Z,13.30
2022-08-17T07:32:17.526Z,12.83
2022-08-17T07:35:10.862Z,12.50
2022-08-17T07:37:39.890Z,14.23
2022-08-17T07:40:20.181Z,12.65
2022-08-17T07:43:23.009Z,13.73
2022-08-17T07:46:02.470Z,14.27
2022-08-17T07:48:29.169Z,13.52
2022-08-17T07:50:55.742Z,13.68
2022-08-17T07:53:24.872Z,17.55
2022-08-17T07:55:52.768Z,13.48
2022-08-17T07:58:22.544Z,14.20
2022-08-17T08:01:04.610Z,13.88
2022-08-17T08:03:33.099Z,14.00
2022-08-17T08:06:01.998Z,11.70
2022-08-17T08:08:33.431Z,16.42
2022-08-17T08:11:07.882Z,13.63
2022-08-17T08:13:37.260Z,11.57
2022-08-17T08:16:20.706Z,12.45
2022-08-17T08:18:54.772Z,14.07
2022-08-17T08:21:31.724Z,14.80
2022-08-17T08:24:10.038Z,11.83
2022-08-17T08:26:43.621Z,11.30
2022-08-17T08:29:20.586Z,11.68
2022-08-17T08:31:56.808Z,11.25
2022-08-17T08:34:58.623Z,12.25
2022-08-17T08:37:34.511Z,12.13
2022-08-17T08:40:19.482Z,12.70
2022-08-17T08:42:57.390Z,11.65
2022-08-17T08:45:32.038Z,11.88
2022-08-17T08:48:57.033Z,11.35
2022-08-17T08:51:03.891Z,11.47
2022-08-17T08:53:40.983Z,9.47
2022-08-17T08:56:16.316Z,10.77
2022-08-17T08:58:51.183Z,10.50
2022-08-17T09:01:27.672Z,12.05
2022-08-17T09:04:25.933Z,11.93
2022-08-17T09:07:02.292Z,11.20
2022-08-17T09:09:42.593Z,10.07
2022-08-17T09:12:17.397Z,9.77
2022-08-17T09:14:54.135Z,9.45
2022-08-17T09:17:31.198Z,9.85
2022-08-17T09:20:02.206Z,10.63
2022-08-17T09:22:34.135Z,7.72
2022-08-17T09:25:08.937Z,9.70
2022-08-17T09:27:49.222Z,10.35
2022-08-17T09:30:16.220Z,12.02
2022-08-17T09:32:46.185Z,10.77
2022-08-17T09:35:17.402Z,10.23
2022-08-17T09:37:58.468Z,10.98
2022-08-17T09:40:30.879Z,9.13
2022-08-17T09:43:04.191Z,8.75
2022-08-17T09:45:35.700Z,8.10
2022-08-17T09:48:08.199Z,8.27
2022-08-17T09:50:55.238Z,7.93
2022-08-17T09:53:31.790Z,7.47
2022-08-17T09:56:22.015Z,8.45
2022-08-17T09:59:08.475Z,8.93
2022-08-17T10:01:39.414Z,6.70
2022-08-17T10:04:29.366Z,7.93
2022-08-17T10:07:03.502Z,9.23
2022-08-17T10:09:48.454Z,8.70
2022-08-17T10:12:29.952Z,8.43
2022-08-17T10:15:11.777Z,7.40
2022-08-17T10:17:46.182Z,8.40
2022-08-17T10:20:18.960Z,9.93
2022-08-17T10:22:54.856Z,7.40
2022-08-17T10:25:27.781Z,7.30
2022-08-17T10:28:06.536Z,7.82
2022-08-17T10:30:37.883Z,7.82
2022-08-17T10:33:12.624Z,7.72
2022-08-17T10:35:47.573Z,10.10
2022-08-17T10:38:38.847Z,8.57
2022-08-17T10:41:19.838Z,7.50
2022-08-17T10:44:36.976Z,8.10
2022-08-17T10:47:02.945Z,9.82
2022-08-17T10:49:32.067Z,8.20
2022-08-17T10:52:01.904Z,13.20
2022-08-17T10:54:40.683Z,7.80
2022-08-17T10:57:39.056Z,7.22
2022-08-17T11:00:10.497Z,7.22
2022-08-17T11:02:43.955Z,6.40
2022-08-17T11:05:23.312Z,6.83
2022-08-17T11:08:06.960Z,7.28
2022-08-17T11:10:52.270Z,6.75
2022-08-17T11:13:31.998Z,6.38
2022-08-17T11:16:15.026Z,7.65
2022-08-17T11:19:07.091Z,6.60
2022-08-17T11:22:01.585Z,7.05
2022-08-17T11:24:34.192Z,6.65
2022-08-17T11:27:07.943Z,7.05
2022-08-17T11:29:52.932Z,9.20
2022-08-17T11:32:36.743Z,8.37
2022-08-17T11:35:25.099Z,8.73
2022-08-17T11:38:06.950Z,7.20
2022-08-17T11:40:46.123Z,8.55
2022-08-17T11:43:30.864Z,9.05
2022-08-17T11:46:07.455Z,7.77
2022-08-17T11:48:43.079Z,6.20
2022-08-17T11:51:13.343Z,8.77
2022-08-17T11:54:31.131Z,6.82
2022-08-17T11:56:51.362Z,7.05
2022-08-17T12:00:07.003Z,8.33
2022-08-17T12:02:42.373Z,8.45
2022-08-17T12:05:36.008Z,6.88
2022-08-17T12:08:18.759Z,8.45
2022-08-17T12:10:58.178Z,9.25
2022-08-17T12:13:27.403Z,8.40
2022-08-17T12:16:01.517Z,6.88
2022-08-17T12:18:31.723Z,6.55
2022-08-17T12:21:19.335Z,7.90
2022-08-17T12:23:55.415Z,7.22
2022-08-17T12:26:25.646Z,6.23
2022-08-17T12:28:58.801Z,9.73
2022-08-17T12:31:28.676Z,8.82
2022-08-17T12:33:56.126Z,7.75
2022-08-17T12:36:25.326Z,8.30
2022-08-17T12:38:55.868Z,9.87
2022-08-17T12:41:34.560Z,9.15
2022-08-17T12:44:05.266Z,9.77
2022-08-17T12:46:34.378Z,8.20
2022-08-17T12:49:12.949Z,8.77
2022-08-17T12:51:43.444Z,9.23
2022-08-17T12:54:24.004Z,11.25
2022-08-17T12:56:50.634Z,7.95
2022-08-17T12:59:29.857Z,7.75
2022-08-17T13:01:57.628Z,8.23
2022-08-17T13:04:24.695Z,10.83
2022-08-17T13:07:00.146Z,8.63
2022-08-17T13:09:35.316Z,6.60
2022-08-17T13:12:07.678Z,8.15
2022-08-17T13:14:35.913Z,7.13
2022-08-17T13:17:03.338Z,8.23
2022-08-17T13:19:40.963Z,7.22
2022-08-17T13:22:12.202Z,7.25
2022-08-17T13:24:49.421Z,6.60
2022-08-17T13:27:20.997Z,6.15
2022-08-17T13:29:53.292Z,7.77
2022-08-17T13:32:22.392Z,6.93
2022-08-17T13:35:14.255Z,7.80
2022-08-17T13:37:37.948Z,6.38
2022-08-17T13:40:29.925Z,6.95
2022-08-17T13:42:57.831Z,8.57
2022-08-17T13:45:56.500Z,6.97
2022-08-17T13:48:26.451Z,7.57
2022-08-17T13:51:22.145Z,7.00
2022-08-17T13:53:56.535Z,8.35
2022-08-17T13:56:38.556Z,6.83
2022-08-17T13:59:08.710Z,7.40
2022-08-17T14:01:39.566Z,7.55
2022-08-17T14:04:08.249Z,6.40
2022-08-17T14:06:51.911Z,8.43
2022-08-17T14:09:25.337Z,7.83
2022-08-17T14:11:53.795Z,7.00
2022-08-17T14:14:21.208Z,7.22
2022-08-17T14:16:49.206Z,8.77
2022-08-17T14:19:15.783Z,8.30
2022-08-17T14:21:44.396Z,7.37
2022-08-17T14:24:18.275Z,8.02
2022-08-17T14:26:44.868Z,7.25
2022-08-17T14:29:14.977Z,7.07
2022-08-17T14:31:42.376Z,6.63
2022-08-17T14:34:16.403Z,6.23
2022-08-17T14:36:48.211Z,7.25
2022-08-17T14:39:16.648Z,9.02
2022-08-17T14:41:43.887Z,7.20
2022-08-17T14:44:11.057Z,6.93
2022-08-17T14:46:38.013Z,6.33
2022-08-17T14:49:04.593Z,7.47
2022-08-17T14:51:32.693Z,7.65
2022-08-17T14:53:59.310Z,6.80
2022-08-17T14:56:26.184Z,7.43
2022-08-17T14:58:52.852Z,6.90
2022-08-17T15:01:20.904Z,8.88
2022-08-17T15:03:47.552Z,8.25
2022-08-17T15:06:14.324Z,6.50
2022-08-17T15:08:44.335Z,7.20
2022-08-17T15:11:14.418Z,7.00
2022-08-17T15:13:53.007Z,6.07
2022-08-17T15:16:20.149Z,7.40
2022-08-17T15:18:46.753Z,7.28
2022-08-17T15:21:13.311Z,6.93
2022-08-17T15:23:39.897Z,7.07
2022-08-17T15:26:10.715Z,7.10
2022-08-17T15:28:37.325Z,7.85
2022-08-17T15:31:04.099Z,6.40
2022-08-17T15:33:30.693Z,7.32
2022-08-17T15:35:59.786Z,7.00
2022-08-17T15:38:26.777Z,8.10
2022-08-17T15:40:54.188Z,6.90
2022-08-17T15:43:27.597Z,7.65
2022-08-17T15:45:59.820Z,6.78
2022-08-17T15:48:27.629Z,6.87
2022-08-17T15:50:54.175Z,7.80
2022-08-17T15:53:20.757Z,8.40
2022-08-17T15:55:47.314Z,7.03
2022-08-17T15:58:13.825Z,7.18
2022-08-17T16:00:49.061Z,7.33
2022-08-17T16:04:01.451Z,7.07
2022-08-17T16:06:07.487Z,6.68
2022-08-17T16:08:37.464Z,7.68
2022-08-17T16:11:04.558Z,7.97
2022-08-17T16:13:31.617Z,9.53
2022-08-17T16:15:59.634Z,9.27
2022-08-17T16:18:27.978Z,7.45
2022-08-17T16:20:54.606Z,8.95
2022-08-17T16:23:21.159Z,11.65
2022-08-17T16:25:53.684Z,8.93
2022-08-17T16:28:21.478Z,6.88
2022-08-17T16:30:48.082Z,8.73
2022-08-17T16:33:16.020Z,8.55
2022-08-17T16:35:42.617Z,8.27
2022-08-17T16:38:09.264Z,8.07
2022-08-17T16:40:36.422Z,8.30
2022-08-17T16:43:04.634Z,7.57
2022-08-17T16:45:31.597Z,7.55
2022-08-17T16:47:58.726Z,10.18
2022-08-17T16:50:26.664Z,8.43
2022-08-17T16:53:02.931Z,7.07
2022-08-17T16:55:29.507Z,8.63
2022-08-17T16:57:56.092Z,7.97
2022-08-17T17:00:22.867Z,10.25
2022-08-17T17:02:49.604Z,8.73
2022-08-17T17:05:36.347Z,9.70
2022-08-17T17:08:07.963Z,8.00
2022-08-17T17:10:39.233Z,6.53
2022-08-17T17:13:12.027Z,7.47
2022-08-17T17:15:46.620Z,6.50
2022-08-17T17:18:13.972Z,6.47
2022-08-17T17:20:47.586Z,7.72
2022-08-17T17:23:26.502Z,6.43
2022-08-17T17:26:02.924Z,5.68
2022-08-17T17:28:37.502Z,7.53
2022-08-17T17:31:10.430Z,6.75
2022-08-17T17:33:42.513Z,8.25
2022-08-17T17:36:22.203Z,7.55
2022-08-17T17:38:52.712Z,6.68
2022-08-17T17:41:26.504Z,6.60
2022-08-17T17:44:01.682Z,5.88
2022-08-17T17:46:32.627Z,6.63
2022-08-17T17:48:59.944Z,6.45
2022-08-17T17:52:09.111Z,5.85
2022-08-17T17:54:36.609Z,8.57
2022-08-17T17:57:11.100Z,8.80
2022-08-17T17:59:48.072Z,6.45
2022-08-17T18:02:31.771Z,7.15
2022-08-17T18:05:08.552Z,8.40
2022-08-17T18:07:42.714Z,8.30
2022-08-17T18:10:29.619Z,7.07
2022-08-17T18:13:04.606Z,7.30
2022-08-17T18:15:36.772Z,7.38
2022-08-17T18:18:39.152Z,8.13
2022-08-17T18:21:10.080Z,6.53
2022-08-17T18:23:46.539Z,7.57
2022-08-17T18:26:13.153Z,8.18
2022-08-17T18:28:41.774Z,6.70
2022-08-17T18:31:12.568Z,9.38
2022-08-17T18:33:41.926Z,6.30
2022-08-17T18:36:08.778Z,9.00
2022-08-17T18:38:37.421Z,7.10
2022-08-17T18:41:17.817Z,6.45
2022-08-17T18:43:53.170Z,7.35
2022-08-17T18:46:29.196Z,6.67
2022-08-17T18:48:59.275Z,7.45
2022-08-17T18:51:40.451Z,8.48
2022-08-17T18:54:20.991Z,7.03
2022-08-17T18:56:54.476Z,7.38
2022-08-17T18:59:32.885Z,8.23
2022-08-17T19:02:11.637Z,6.80
2022-08-17T19:04:43.059Z,6.95
2022-08-17T19:07:29.973Z,7.22
2022-08-17T19:10:13.923Z,6.93
2022-08-17T19:12:46.782Z,7.70
2022-08-17T19:15:15.971Z,8.15
2022-08-17T19:17:48.046Z,7.18
2022-08-17T19:20:19.272Z,6.50
2022-08-17T19:22:56.318Z,7.25
2022-08-17T19:25:27.342Z,6.73
2022-08-17T19:28:01.602Z,8.15
2022-08-17T19:30:30.035Z,7.63
2022-08-17T19:32:56.851Z,7.43
2022-08-17T19:35:29.652Z,9.75
2022-08-17T19:38:03.468Z,7.33
2022-08-17T19:40:52.330Z,6.60
2022-08-17T19:43:28.472Z,8.85
2022-08-17T19:46:02.699Z,7.40
2022-08-17T19:48:42.591Z,8.25
2022-08-17T19:51:13.706Z,8.97
2022-08-17T19:54:04.815Z,8.33
2022-08-17T19:56:41.356Z,8.80
2022-08-17T19:59:16.101Z,9.00
2022-08-17T20:01:47.726Z,7.82
2022-08-17T20:04:21.587Z,7.70
2022-08-17T20:06:48.915Z,8.10
2022-08-17T20:09:20.941Z,8.50
2022-08-17T20:11:54.103Z,7.70
2022-08-17T20:14:25.683Z,7.25
2022-08-17T20:16:52.548Z,8.77
2022-08-17T20:19:29.078Z,8.80
2022-08-17T20:22:00.782Z,7.47
2022-08-17T20:24:34.836Z,9.32
2022-08-17T20:27:13.137Z,9.20
2022-08-17T20:30:04.507Z,9.07
2022-08-17T20:32:33.877Z,9.60
2022-08-17T20:35:08.446Z,9.23
2022-08-17T20:37:36.024Z,7.47
2022-08-17T20:40:19.105Z,8.90
2022-08-17T20:42:46.183Z,9.25
2022-08-17T20:45:52.564Z,7.63
2022-08-17T20:48:37.427Z,7.57
2022-08-17T20:51:22.323Z,9.07
2022-08-17T20:54:25.330Z,8.23
2022-08-17T20:56:54.929Z,7.70
2022-08-17T20:59:53.694Z,10.75
2022-08-17T21:02:23.707Z,8.60
2022-08-17T21:05:16.872Z,7.30
2022-08-17T21:07:52.953Z,7.65
2022-08-17T21:10:32.409Z,8.65
2022-08-17T21:13:04.186Z,8.63
2022-08-17T21:15:39.263Z,8.10
2022-08-17T21:18:15.244Z,8.70
2022-08-17T21:20:49.146Z,7.82
2022-08-17T21:23:39.834Z,7.53
2022-08-17T21:26:30.763Z,9.00
2022-08-17T21:29:30.290Z,7.88
2022-08-17T21:32:19.206Z,8.40
2022-08-17T21:35:27.760Z,10.27
2022-08-17T21:37:58.500Z,8.18
2022-08-17T21:40:27.769Z,8.57
2022-08-17T21:42:57.223Z,10.63
2022-08-17T21:45:28.876Z,8.13
2022-08-17T21:48:12.194Z,8.87
2022-08-17T21:50:42.258Z,8.07
2022-08-17T21:53:12.733Z,11.07
2022-08-17T21:55:39.492Z,8.70
2022-08-17T21:58:22.007Z,8.50
2022-08-17T22:01:09.661Z,11.03
2022-08-17T22:03:36.308Z,9.53
2022-08-17T22:09:03.436Z,9.10
2022-08-17T22:11:30.290Z,9.02
2022-08-17T22:14:05.452Z,7.70
2022-08-17T22:16:32.596Z,7.70
2022-08-17T22:18:59.442Z,10.00
2022-08-17T22:21:26.470Z,8.67
2022-08-17T22:24:03.235Z,8.95
2022-08-17T22:27:05.411Z,7.78
2022-08-17T22:29:47.255Z,9.18
2022-08-17T22:32:33.738Z,10.65
2022-08-17T22:35:32.596Z,8.07
2022-08-17T22:38:28.127Z,8.17
2022-08-17T22:41:12.424Z,7.65
2022-08-17T22:43:43.094Z,9.85
2022-08-17T22:46:11.856Z,8.88
2022-08-17T22:48:47.538Z,8.60
2022-08-17T22:51:18.645Z,8.83
2022-08-17T22:53:46.883Z,8.67
2022-08-17T22:56:18.479Z,8.02
2022-08-17T22:58:58.964Z,9.93
2022-08-17T23:01:29.433Z,9.48
2022-08-17T23:03:58.291Z,9.02
2022-08-17T23:06:25.090Z,10.30
2022-08-17T23:08:52.764Z,8.80
2022-08-17T23:11:23.335Z,8.88
2022-08-17T23:14:11.043Z,8.93
2022-08-17T23:16:38.839Z,9.15
2022-08-17T23:19:05.405Z,8.50
2022-08-17T23:21:32.107Z,9.17
2022-08-17T23:24:05.157Z,9.40
2022-08-17T23:26:34.166Z,9.98
2022-08-17T23:29:00.719Z,8.30
2022-08-17T23:31:27.279Z,8.98
2022-08-17T23:33:53.896Z,8.55
2022-08-17T23:36:20.467Z,8.67
2022-08-17T23:38:47.032Z,9.88
2022-08-17T23:41:16.768Z,9.82
2022-08-17T23:43:47.725Z,9.85
2022-08-17T23:46:14.369Z,9.40
2022-08-17T23:48:40.909Z,9.77
2022-08-17T23:51:11.631Z,8.80
2022-08-17T23:53:42.146Z,11.02
2022-08-17T23:56:10.250Z,10.18
2022-08-17T23:58:37.227Z,10.48
